NCAR-RAP Real-Time Weather Data

Output produced by METARs form (01 December 2020  17:40 UTC)
found at http://weather.rap.ucar.edu/surface/
 
KIAD 011652Z 28014G26KT 10SM BKN055 BKN110 07/M03 A2970 RMK AO2 PK WND 29026/1650 SLP057 T00671033
KIAD 011552Z 29015G25KT 10SM FEW055 SCT110 07/M03 A2970 RMK AO2 SLP056 T00671033
KIAD 011452Z 28012G20KT 10SM FEW040 BKN090 06/M03 A2968 RMK AO2 SLP050 60001 T00561028 53013
KIAD 011352Z 24004KT 10SM FEW047 BKN090 04/01 A2966 RMK AO2 SLP043 T00440011
KIAD 011252Z 25003KT 10SM BKN030 BKN065 03/01 A2964 RMK AO2 RAE48 SLP037 P0001 T00330006
KIAD 011248Z 24004KT 10SM BKN030 BKN065 03/01 A2964 RMK AO2 RAE48 P0001
KIAD 011226Z 29012KT 10SM -RA BKN024 OVC055 03/01 A2964 RMK AO2 P0001 T00330006
KIAD 011152Z 29008KT 10SM -RA BKN033 OVC047 04/01 A2962 RMK AO2 SLP028 P0000 60000 70052 T00390006 10078 20039 53023
KIAD 011052Z 29010KT 10SM -RA OVC042 05/00 A2959 RMK AO2 SLP019 P0000 T00500000
KIAD 010952Z 25007KT 10SM -RA OVC040 06/01 A2956 RMK AO2 RAB22 SLP010 P0000 T00610006
KIAD 010852Z 32003KT 10SM OVC046 07/01 A2955 RMK AO2 SLP005 T00720011 53006
KIAD 010752Z 00000KT 10SM OVC044 08/01 A2954 RMK AO2 SLP001 T00780006
KIAD 010652Z 33004KT 10SM OVC047 08/01 A2953 RMK AO2 SLP999 T00780011
KIAD 010552Z 31003KT 10SM OVC047 08/02 A2953 RMK AO2 SLP999 T00780022 10128 20078 51002
KIAD 010452Z 34005KT 10SM BKN049 OVC070 08/02 A2953 RMK AO2 SLP999 T00830022 401670083
KIAD 010352Z 34006KT 10SM OVC050 09/02 A2952 RMK AO2 SLP997 T00890022
KIAD 010252Z 32007KT 10SM BKN048 BKN055 09/03 A2952 RMK AO2 SLP997 T00940028 51029
KIAD 010152Z 33009KT 10SM BKN044 11/04 A2949 RMK AO2 SLP987 T01060039